createdAt,value
2023-02-16T00:01:34.168Z,22.20
2023-02-16T00:04:01.029Z,23.83
2023-02-16T00:06:28.662Z,21.83
2023-02-16T00:08:56.170Z,21.93
2023-02-16T00:11:50.526Z,21.73
2023-02-16T00:14:18.122Z,23.47
2023-02-16T00:16:45.861Z,21.93
2023-02-16T00:19:20.539Z,21.87
2023-02-16T00:21:47.745Z,21.43
2023-02-16T00:24:14.588Z,22.67
2023-02-16T00:26:41.663Z,22.20
2023-02-16T00:29:10.880Z,22.20
2023-02-16T00:31:37.487Z,21.70
2023-02-16T00:34:24.380Z,20.77
2023-02-16T00:36:53.282Z,22.17
2023-02-16T00:39:22.519Z,21.80
2023-02-16T00:41:51.798Z,22.00
2023-02-16T00:44:20.768Z,21.60
2023-02-16T00:46:47.456Z,21.70
2023-02-16T00:49:14.923Z,20.13
2023-02-16T00:51:41.903Z,22.67
2023-02-16T00:54:08.410Z,22.47
2023-02-16T00:56:35.014Z,21.90
2023-02-16T00:59:02.436Z,21.70
2023-02-16T01:01:32.611Z,20.57
2023-02-16T01:04:01.443Z,21.47
2023-02-16T01:06:46.691Z,20.23
2023-02-16T01:09:33.451Z,19.80
2023-02-16T01:12:02.076Z,20.87
2023-02-16T01:14:30.011Z,20.23
2023-02-16T01:16:56.537Z,21.80
2023-02-16T01:19:23.146Z,20.80
2023-02-16T01:21:49.728Z,19.93
2023-02-16T01:24:16.437Z,19.27
2023-02-16T01:26:44.638Z,20.30
2023-02-16T01:29:14.148Z,19.87
2023-02-16T01:31:41.494Z,18.90
2023-02-16T01:34:08.139Z,20.27
2023-02-16T01:36:36.516Z,22.27
2023-02-16T01:39:06.198Z,22.93
2023-02-16T01:41:35.694Z,22.33
2023-02-16T01:44:09.529Z,21.43
2023-02-16T01:46:38.900Z,21.27
2023-02-16T01:49:05.427Z,21.67
2023-02-16T01:51:38.003Z,21.07
2023-02-16T01:54:12.726Z,20.33
2023-02-16T01:56:51.892Z,21.70
2023-02-16T01:59:31.250Z,20.27
2023-02-16T02:01:58.765Z,19.83
2023-02-16T02:04:44.115Z,19.93
2023-02-16T02:07:15.236Z,19.83
2023-02-16T02:09:45.312Z,20.53
2023-02-16T02:12:23.691Z,20.07
2023-02-16T02:14:51.668Z,19.80
2023-02-16T02:17:19.706Z,19.67
2023-02-16T02:19:59.781Z,19.90
2023-02-16T02:23:00.473Z,18.87
2023-02-16T02:25:27.632Z,18.63
2023-02-16T02:27:57.892Z,19.23
2023-02-16T02:30:24.490Z,20.33
2023-02-16T02:33:03.386Z,20.50
2023-02-16T02:35:30.096Z,20.40
2023-02-16T02:38:29.133Z,26.33
2023-02-16T02:41:17.888Z,21.23
2023-02-16T02:44:04.674Z,21.57
2023-02-16T02:46:33.420Z,20.53
2023-02-16T02:49:00.046Z,20.67
2023-02-16T02:51:29.283Z,19.67
2023-02-16T02:54:19.478Z,19.97
2023-02-16T02:57:25.408Z,19.10
2023-02-16T03:00:15.905Z,20.50
2023-02-16T03:02:43.356Z,22.17
2023-02-16T03:05:11.484Z,20.50
2023-02-16T03:07:47.655Z,19.60
2023-02-16T03:10:37.911Z,19.83
2023-02-16T03:13:05.787Z,18.27
2023-02-16T03:15:33.797Z,20.53
2023-02-16T03:18:20.262Z,20.23
2023-02-16T03:21:06.063Z,18.90
2023-02-16T03:23:51.846Z,19.07
2023-02-16T03:26:37.616Z,19.03
2023-02-16T03:29:38.023Z,18.20
2023-02-16T03:32:04.921Z,18.47
2023-02-16T03:34:32.095Z,18.67
2023-02-16T03:37:00.719Z,17.37
2023-02-16T03:39:28.346Z,21.45
2023-02-16T03:41:55.942Z,19.07
2023-02-16T03:44:22.828Z,19.63
2023-02-16T03:46:49.621Z,16.97
2023-02-16T03:49:17.144Z,16.70
2023-02-16T03:51:43.777Z,16.30
2023-02-16T03:54:10.376Z,18.00
2023-02-16T03:56:36.992Z,17.37
2023-02-16T03:59:03.684Z,16.73
2023-02-16T04:01:30.298Z,18.23
2023-02-16T04:03:56.912Z,16.93
2023-02-16T04:06:23.534Z,17.07
2023-02-16T04:08:50.867Z,17.10
2023-02-16T04:11:35.889Z,16.77
2023-02-16T04:14:03.104Z,15.87
2023-02-16T04:16:32.032Z,15.90
2023-02-16T04:18:58.603Z,16.17
2023-02-16T04:21:25.142Z,15.83
2023-02-16T04:23:51.619Z,16.20
2023-02-16T04:26:18.204Z,16.00
2023-02-16T04:28:44.730Z,16.33
2023-02-16T04:31:11.349Z,16.57
2023-02-16T04:33:37.936Z,15.73
2023-02-16T04:36:04.632Z,15.80
2023-02-16T04:38:31.114Z,15.27
2023-02-16T04:40:57.626Z,15.67
2023-02-16T04:43:24.255Z,20.43
2023-02-16T04:45:50.798Z,16.30
2023-02-16T04:48:17.462Z,15.83
2023-02-16T04:50:44.047Z,15.70
2023-02-16T04:53:10.553Z,15.60
2023-02-16T04:55:37.073Z,15.00
2023-02-16T04:58:03.586Z,15.60
2023-02-16T05:00:30.188Z,15.90
2023-02-16T05:02:56.768Z,15.40
2023-02-16T05:05:23.406Z,15.40
2023-02-16T05:07:49.903Z,15.43
2023-02-16T05:10:16.421Z,15.97
2023-02-16T05:13:01.759Z,14.90
2023-02-16T05:15:28.335Z,14.30
2023-02-16T05:17:54.855Z,15.30
2023-02-16T05:20:41.349Z,14.70
2023-02-16T05:23:07.903Z,14.90
2023-02-16T05:25:34.382Z,15.20
2023-02-16T05:28:00.920Z,14.80
2023-02-16T05:30:27.522Z,15.23
2023-02-16T05:32:54.064Z,15.73
2023-02-16T05:35:20.574Z,14.67
2023-02-16T05:37:47.063Z,13.93
2023-02-16T05:40:13.731Z,15.03
2023-02-16T05:42:40.303Z,13.83
2023-02-16T05:45:06.995Z,14.27
2023-02-16T05:47:33.481Z,14.30
2023-02-16T05:50:00.046Z,14.13
2023-02-16T05:52:26.589Z,14.47
2023-02-16T05:54:53.099Z,13.23
2023-02-16T05:57:19.632Z,13.90
2023-02-16T05:59:46.194Z,13.17
2023-02-16T06:02:12.688Z,12.73
2023-02-16T06:04:39.192Z,12.97
2023-02-16T06:07:05.733Z,12.97
2023-02-16T06:09:32.406Z,13.13
2023-02-16T06:11:59.192Z,14.13
2023-02-16T06:14:25.732Z,13.57
2023-02-16T06:16:52.298Z,12.13
2023-02-16T06:19:19.920Z,12.67
2023-02-16T06:21:46.780Z,12.37
2023-02-16T06:24:13.975Z,12.93
2023-02-16T06:26:40.922Z,13.20
2023-02-16T06:29:07.509Z,12.23
2023-02-16T06:31:36.433Z,12.53
2023-02-16T06:34:03.843Z,12.63
2023-02-16T06:36:30.649Z,11.87
2023-02-16T06:38:57.174Z,12.10
2023-02-16T06:41:35.734Z,12.90
2023-02-16T06:44:04.293Z,12.87
2023-02-16T06:46:31.283Z,12.40
2023-02-16T06:48:57.805Z,21.10
2023-02-16T06:51:24.348Z,15.37
2023-02-16T06:53:51.058Z,14.13
2023-02-16T06:56:17.644Z,13.10
2023-02-16T06:58:44.230Z,13.03
2023-02-16T07:01:10.847Z,13.73
2023-02-16T07:03:37.501Z,14.77
2023-02-16T07:06:04.255Z,14.57
2023-02-16T07:08:30.838Z,17.97
2023-02-16T07:10:57.314Z,13.03
2023-02-16T07:13:23.900Z,14.57
2023-02-16T07:15:50.492Z,13.93
2023-02-16T07:18:17.080Z,14.33
2023-02-16T07:20:43.595Z,16.00
2023-02-16T07:23:10.150Z,16.07
2023-02-16T07:25:37.276Z,16.10
2023-02-16T07:28:03.904Z,15.80
2023-02-16T07:30:30.524Z,14.70
2023-02-16T07:32:57.023Z,16.57
2023-02-16T07:35:23.525Z,15.63
2023-02-16T07:37:50.082Z,15.27
2023-02-16T07:40:16.648Z,16.40
2023-02-16T07:42:43.165Z,15.20
2023-02-16T07:45:09.831Z,15.90
2023-02-16T07:47:36.345Z,16.90
2023-02-16T07:50:02.934Z,15.97
2023-02-16T07:52:31.286Z,16.47
2023-02-16T07:54:59.017Z,16.13
2023-02-16T07:57:26.583Z,16.43
2023-02-16T07:59:53.234Z,15.73
2023-02-16T08:02:20.716Z,15.33
2023-02-16T08:04:48.576Z,14.23
2023-02-16T08:07:15.880Z,14.70
2023-02-16T08:09:42.661Z,14.50
2023-02-16T08:12:10.204Z,13.50
2023-02-16T08:14:37.058Z,15.63
2023-02-16T08:17:03.975Z,19.30
2023-02-16T08:19:31.060Z,16.67
2023-02-16T08:21:57.887Z,17.70
2023-02-16T08:24:25.131Z,15.33
2023-02-16T08:26:53.746Z,17.73
2023-02-16T08:29:20.861Z,14.97
2023-02-16T08:31:48.151Z,19.15
2023-02-16T08:34:16.016Z,18.33
2023-02-16T08:36:44.590Z,19.87
2023-02-16T08:39:15.309Z,17.27
2023-02-16T08:41:42.298Z,16.57
2023-02-16T08:44:10.016Z,16.90
2023-02-16T08:46:39.221Z,16.60
2023-02-16T08:49:06.332Z,16.03
2023-02-16T08:51:38.366Z,17.80
2023-02-16T08:54:06.041Z,15.53
2023-02-16T08:56:35.522Z,15.77
2023-02-16T08:59:02.331Z,16.53
2023-02-16T09:01:28.940Z,16.40
2023-02-16T09:03:55.525Z,15.33
2023-02-16T09:06:22.679Z,16.30
2023-02-16T09:08:52.868Z,16.27
2023-02-16T09:11:19.476Z,15.93
2023-02-16T09:13:46.894Z,17.00
2023-02-16T09:16:15.709Z,16.93
2023-02-16T09:18:42.684Z,19.77
2023-02-16T09:21:11.772Z,16.30
2023-02-16T09:23:40.228Z,16.47
2023-02-16T09:26:08.087Z,16.30
2023-02-16T09:28:35.131Z,16.37
2023-02-16T09:31:08.523Z,17.30
2023-02-16T09:33:35.062Z,17.63
2023-02-16T09:36:05.442Z,20.30
2023-02-16T09:38:32.650Z,17.00
2023-02-16T09:41:00.927Z,17.17
2023-02-16T09:43:40.235Z,17.47
2023-02-16T09:46:09.301Z,17.07
2023-02-16T09:48:45.505Z,17.47
2023-02-16T09:51:17.193Z,16.13
2023-02-16T09:53:46.866Z,16.97
2023-02-16T09:56:20.192Z,17.70
2023-02-16T09:58:49.618Z,17.57
2023-02-16T10:01:34.950Z,17.97
2023-02-16T10:04:27.562Z,17.10
2023-02-16T10:06:54.632Z,17.33
2023-02-16T10:09:21.305Z,17.90
2023-02-16T10:11:48.803Z,17.90
2023-02-16T10:14:24.416Z,17.73
2023-02-16T10:17:07.842Z,18.80
2023-02-16T10:19:47.155Z,18.07
2023-02-16T10:22:17.314Z,18.00
2023-02-16T10:24:54.939Z,17.00
2023-02-16T10:27:21.797Z,17.37
2023-02-16T10:29:48.479Z,17.00
2023-02-16T10:32:16.603Z,16.57
2023-02-16T10:34:49.217Z,17.30
2023-02-16T10:37:34.779Z,18.70
2023-02-16T10:40:10.307Z,18.37
2023-02-16T10:42:57.065Z,18.03
2023-02-16T10:45:29.897Z,17.67
2023-02-16T10:47:56.414Z,17.90
2023-02-16T10:50:29.009Z,18.87
2023-02-16T10:53:08.558Z,17.77
2023-02-16T10:55:36.464Z,17.73
2023-02-16T10:58:03.095Z,18.83
2023-02-16T11:00:51.820Z,17.63
2023-02-16T11:03:20.828Z,17.50
2023-02-16T11:05:47.795Z,17.80
2023-02-16T11:08:14.501Z,17.57
2023-02-16T11:10:48.297Z,16.97
2023-02-16T11:13:34.595Z,18.43
2023-02-16T11:16:05.134Z,17.60
2023-02-16T11:18:37.914Z,17.73
2023-02-16T11:21:06.287Z,17.90
2023-02-16T11:23:37.254Z,18.30
2023-02-16T11:26:10.110Z,17.53
2023-02-16T11:28:38.896Z,17.43
2023-02-16T11:31:14.718Z,18.40
2023-02-16T11:33:42.048Z,30.67
2023-02-16T11:36:27.853Z,19.60
2023-02-16T11:38:59.142Z,17.83
2023-02-16T11:41:26.110Z,17.63
2023-02-16T11:43:53.310Z,18.10
2023-02-16T11:46:20.651Z,17.73
2023-02-16T11:48:47.601Z,16.93
2023-02-16T11:51:19.265Z,18.33
2023-02-16T11:53:45.920Z,17.73
2023-02-16T11:56:12.894Z,17.23
2023-02-16T11:58:39.807Z,17.57
2023-02-16T12:01:18.209Z,16.57
2023-02-16T12:03:44.788Z,17.47
2023-02-16T12:06:21.467Z,15.60
2023-02-16T12:08:54.940Z,16.60
2023-02-16T12:11:26.314Z,17.57
2023-02-16T12:14:15.830Z,19.73
2023-02-16T12:16:58.731Z,19.07
2023-02-16T12:19:25.268Z,17.97
2023-02-16T12:22:01.547Z,16.53
2023-02-16T12:24:28.082Z,16.90
2023-02-16T12:27:02.653Z,16.13
2023-02-16T12:29:45.060Z,16.43
2023-02-16T12:32:11.730Z,16.20
2023-02-16T12:34:44.717Z,16.53
2023-02-16T12:37:32.373Z,17.57
2023-02-16T12:39:58.840Z,16.33
2023-02-16T12:42:25.361Z,16.37
2023-02-16T12:44:53.838Z,15.70
2023-02-16T12:47:32.437Z,15.93
2023-02-16T12:50:01.553Z,16.33
2023-02-16T12:52:35.456Z,15.10
2023-02-16T12:55:22.292Z,16.40
2023-02-16T12:58:07.667Z,15.80
2023-02-16T13:00:35.017Z,15.37
2023-02-16T13:03:11.218Z,16.47
2023-02-16T13:05:38.040Z,16.20
2023-02-16T13:08:23.708Z,16.47
2023-02-16T13:10:56.268Z,15.17
2023-02-16T13:13:25.013Z,15.97
2023-02-16T13:15:57.255Z,15.10
2023-02-16T13:18:30.389Z,14.47
2023-02-16T13:21:00.104Z,16.10
2023-02-16T13:23:26.570Z,14.93
2023-02-16T13:25:58.212Z,16.07
2023-02-16T13:28:31.452Z,14.47
2023-02-16T13:31:12.514Z,14.70
2023-02-16T13:34:00.510Z,14.83
2023-02-16T13:36:43.763Z,14.60
2023-02-16T13:39:25.246Z,14.97
2023-02-16T13:42:01.503Z,14.70
2023-02-16T13:44:40.218Z,14.57
2023-02-16T13:47:07.786Z,14.23
2023-02-16T13:49:40.421Z,14.60
2023-02-16T13:52:08.665Z,14.83
2023-02-16T13:54:36.590Z,13.30
2023-02-16T13:57:04.302Z,13.40
2023-02-16T13:59:37.003Z,13.90
2023-02-16T14:02:04.397Z,14.40
2023-02-16T14:04:31.076Z,14.20
2023-02-16T14:07:03.801Z,15.30
2023-02-16T14:09:45.659Z,15.10
2023-02-16T14:12:12.181Z,14.57
2023-02-16T14:14:43.342Z,13.47
2023-02-16T14:17:16.189Z,13.27
2023-02-16T14:20:02.254Z,13.87
2023-02-16T14:22:28.778Z,12.57
2023-02-16T14:24:57.210Z,12.77
2023-02-16T14:27:44.323Z,12.40
2023-02-16T14:30:26.357Z,12.33
2023-02-16T14:32:58.592Z,12.27
2023-02-16T14:35:27.672Z,11.73
2023-02-16T14:37:55.912Z,11.57
2023-02-16T14:40:34.448Z,13.20
2023-02-16T14:43:06.200Z,11.90
2023-02-16T14:45:38.735Z,11.47
2023-02-16T14:48:14.385Z,11.87
2023-02-16T14:50:59.556Z,12.70
2023-02-16T14:53:40.996Z,11.80
2023-02-16T14:56:13.615Z,12.40
2023-02-16T14:58:52.391Z,12.30
2023-02-16T15:01:19.612Z,14.40
2023-02-16T15:03:50.836Z,13.67
2023-02-16T15:06:19.162Z,12.70
2023-02-16T15:08:49.888Z,13.27
2023-02-16T15:11:20.990Z,11.90
2023-02-16T15:13:53.450Z,11.43
2023-02-16T15:16:20.680Z,11.20
2023-02-16T15:18:49.353Z,11.90
2023-02-16T15:21:20.785Z,11.93
2023-02-16T15:23:51.694Z,11.67
2023-02-16T15:26:20.470Z,13.07
2023-02-16T15:28:53.367Z,11.47
2023-02-16T15:31:23.991Z,11.63
2023-02-16T15:33:55.847Z,11.63
2023-02-16T15:36:24.436Z,10.67
2023-02-16T15:38:53.907Z,11.47
2023-02-16T15:41:37.384Z,10.10
2023-02-16T15:44:05.855Z,11.30
2023-02-16T15:46:32.433Z,11.13
2023-02-16T15:48:59.976Z,11.13
2023-02-16T15:51:28.628Z,11.17
2023-02-16T15:53:55.957Z,10.77
2023-02-16T15:56:37.534Z,11.27
2023-02-16T15:59:23.033Z,11.50
2023-02-16T16:01:55.130Z,10.67
2023-02-16T16:04:23.256Z,12.87
2023-02-16T16:06:51.405Z,11.60
2023-02-16T16:09:21.502Z,12.13
2023-02-16T16:11:48.953Z,11.73
2023-02-16T16:14:16.032Z,11.73
2023-02-16T16:16:43.642Z,11.97
2023-02-16T16:19:15.772Z,11.30
2023-02-16T16:21:51.404Z,11.03
2023-02-16T16:24:38.139Z,10.57
2023-02-16T16:27:06.763Z,10.20
2023-02-16T16:29:38.285Z,9.87
2023-02-16T16:32:06.439Z,12.20
2023-02-16T16:34:33.307Z,10.47
2023-02-16T16:37:02.532Z,10.03
2023-02-16T16:39:33.689Z,11.13
2023-02-16T16:42:00.156Z,11.97
2023-02-16T16:44:29.385Z,12.77
2023-02-16T16:46:55.966Z,13.83
2023-02-16T16:49:23.201Z,12.43
2023-02-16T16:51:52.784Z,12.60
2023-02-16T16:54:22.417Z,12.27
2023-02-16T16:56:48.963Z,12.80
2023-02-16T16:59:16.590Z,11.60
2023-02-16T17:01:45.264Z,11.90
2023-02-16T17:04:11.831Z,11.10
2023-02-16T17:06:38.349Z,12.70
2023-02-16T17:09:05.685Z,11.93
2023-02-16T17:11:33.736Z,11.40
2023-02-16T17:14:14.463Z,11.43
2023-02-16T17:16:43.035Z,11.50
2023-02-16T17:19:13.647Z,11.53
2023-02-16T17:21:40.197Z,11.27
2023-02-16T17:24:10.186Z,11.60
2023-02-16T17:26:37.581Z,11.03
2023-02-16T17:29:04.761Z,11.53
2023-02-16T17:31:31.595Z,11.83
2023-02-16T17:33:58.196Z,12.90
2023-02-16T17:36:25.559Z,12.83
2023-02-16T17:38:52.120Z,13.20
2023-02-16T17:41:20.464Z,12.30
2023-02-16T17:43:47.043Z,12.50
2023-02-16T17:46:14.776Z,12.70
2023-02-16T17:48:41.345Z,12.87
2023-02-16T17:51:14.666Z,12.93
2023-02-16T17:53:41.297Z,11.60
2023-02-16T17:56:10.697Z,13.23
2023-02-16T17:58:37.243Z,12.60
2023-02-16T18:01:04.055Z,11.90
2023-02-16T18:03:30.588Z,11.93
2023-02-16T18:05:58.254Z,12.57
2023-02-16T18:08:26.887Z,12.40
2023-02-16T18:11:02.513Z,12.80
2023-02-16T18:13:29.618Z,13.07
2023-02-16T18:15:56.616Z,13.57
2023-02-16T18:18:23.258Z,12.17
2023-02-16T18:20:50.022Z,13.30
2023-02-16T18:23:17.234Z,12.93
2023-02-16T18:25:44.245Z,13.17
2023-02-16T18:28:14.763Z,12.23
2023-02-16T18:30:41.694Z,11.70
2023-02-16T18:33:08.306Z,11.70
2023-02-16T18:35:34.871Z,11.43
2023-02-16T18:38:01.450Z,12.47
2023-02-16T18:40:28.002Z,12.03
2023-02-16T18:42:54.660Z,11.80
2023-02-16T18:45:21.187Z,12.10
2023-02-16T18:47:47.996Z,12.00
2023-02-16T18:50:14.654Z,11.90
2023-02-16T18:52:45.027Z,11.40
2023-02-16T18:55:12.593Z,12.37
2023-02-16T18:57:39.164Z,11.73
2023-02-16T19:00:06.461Z,12.43
2023-02-16T19:02:33.214Z,12.47
2023-02-16T19:04:59.769Z,13.87
2023-02-16T19:07:26.404Z,13.17
2023-02-16T19:09:53.009Z,13.93
2023-02-16T19:12:19.588Z,13.63
2023-02-16T19:14:46.096Z,13.90
2023-02-16T19:17:12.719Z,13.33
2023-02-16T19:19:39.388Z,13.60
2023-02-16T19:22:05.931Z,13.93
2023-02-16T19:24:32.564Z,13.60
2023-02-16T19:26:59.043Z,13.73
2023-02-16T19:29:25.533Z,13.77
2023-02-16T19:31:52.299Z,15.00
2023-02-16T19:34:18.851Z,14.60
2023-02-16T19:36:45.516Z,15.93
2023-02-16T19:39:12.708Z,15.50
2023-02-16T19:41:40.219Z,14.47
2023-02-16T19:44:07.019Z,15.87
2023-02-16T19:46:34.580Z,15.00
2023-02-16T19:49:01.551Z,14.40
2023-02-16T19:51:28.330Z,15.23
2023-02-16T19:53:54.851Z,16.47
2023-02-16T19:56:23.296Z,15.33
2023-02-16T19:58:50.656Z,15.00
2023-02-16T20:01:21.649Z,14.53
2023-02-16T20:03:48.772Z,14.10
2023-02-16T20:06:16.776Z,14.43
2023-02-16T20:08:44.011Z,14.60
2023-02-16T20:11:10.877Z,14.60
2023-02-16T20:13:38.112Z,14.20
2023-02-16T20:16:05.988Z,14.77
2023-02-16T20:18:32.711Z,15.83
2023-02-16T20:20:59.861Z,15.83
2023-02-16T20:23:27.066Z,15.10
2023-02-16T20:25:53.906Z,14.30
2023-02-16T20:28:20.586Z,14.33
2023-02-16T20:30:47.215Z,14.23
2023-02-16T20:33:14.810Z,13.83
2023-02-16T20:35:41.768Z,14.27
2023-02-16T20:38:08.328Z,13.73
2023-02-16T20:40:34.862Z,13.67
2023-02-16T20:43:01.487Z,14.53
2023-02-16T20:45:28.056Z,12.87
2023-02-16T20:47:54.576Z,13.70
2023-02-16T20:50:21.080Z,14.03
2023-02-16T20:52:47.627Z,13.17
2023-02-16T20:55:14.737Z,14.60
2023-02-16T20:57:41.331Z,12.77
2023-02-16T21:00:13.248Z,13.10
2023-02-16T21:02:40.475Z,13.63
2023-02-16T21:05:08.016Z,13.80
2023-02-16T21:07:34.602Z,13.97
2023-02-16T21:10:01.150Z,14.03
2023-02-16T21:12:27.654Z,12.87
2023-02-16T21:14:54.240Z,13.57
2023-02-16T21:17:20.950Z,13.43
2023-02-16T21:19:47.529Z,12.93
2023-02-16T21:22:14.421Z,13.20
2023-02-16T21:24:42.109Z,12.70
2023-02-16T21:27:08.751Z,13.27
2023-02-16T21:29:35.572Z,13.17
2023-02-16T21:32:02.087Z,13.50
2023-02-16T21:34:28.794Z,13.73
2023-02-16T21:36:55.401Z,12.83
2023-02-16T21:39:42.732Z,13.30
2023-02-16T21:42:09.212Z,13.27
2023-02-16T21:44:43.084Z,13.30
2023-02-16T21:47:31.607Z,13.95
2023-02-16T21:49:58.522Z,13.90
2023-02-16T21:52:25.747Z,13.40
2023-02-16T21:55:10.885Z,12.93
2023-02-16T21:57:37.436Z,13.70
2023-02-16T22:00:06.189Z,14.63
2023-02-16T22:02:33.277Z,14.87
2023-02-16T22:04:59.801Z,13.77
2023-02-16T22:07:26.334Z,13.00
2023-02-16T22:09:52.932Z,14.47
2023-02-16T22:12:19.463Z,14.70
2023-02-16T22:14:45.997Z,13.97
2023-02-16T22:17:12.714Z,13.43
2023-02-16T22:19:39.294Z,15.50
2023-02-16T22:22:05.800Z,14.67
2023-02-16T22:24:32.381Z,15.60
2023-02-16T22:26:58.935Z,14.17
2023-02-16T22:29:25.468Z,14.83
2023-02-16T22:31:52.010Z,15.33
2023-02-16T22:34:19.855Z,14.37
2023-02-16T22:36:46.406Z,14.63
2023-02-16T22:39:13.755Z,15.17
2023-02-16T22:41:40.357Z,15.63
2023-02-16T22:44:07.255Z,16.60
2023-02-16T22:46:33.931Z,16.63
2023-02-16T22:49:00.536Z,15.63
2023-02-16T22:51:29.228Z,16.97
2023-02-16T22:53:57.539Z,16.13
2023-02-16T22:56:24.207Z,15.13
2023-02-16T22:58:50.754Z,16.43
2023-02-16T23:01:18.762Z,15.97
2023-02-16T23:03:53.501Z,16.10
2023-02-16T23:06:21.208Z,16.10
2023-02-16T23:08:51.480Z,17.07
2023-02-16T23:11:18.268Z,15.93
2023-02-16T23:13:44.778Z,16.20
2023-02-16T23:16:12.910Z,16.43
2023-02-16T23:18:39.654Z,16.37
2023-02-16T23:21:11.043Z,16.20
2023-02-16T23:23:37.569Z,16.33
2023-02-16T23:26:05.848Z,15.90
2023-02-16T23:28:33.190Z,15.83
2023-02-16T23:30:59.754Z,15.63
2023-02-16T23:33:26.348Z,15.67
2023-02-16T23:35:53.004Z,15.10
2023-02-16T23:38:19.555Z,16.10
2023-02-16T23:40:47.015Z,15.33
2023-02-16T23:43:13.651Z,14.57
2023-02-16T23:45:43.537Z,15.43
2023-02-16T23:48:10.096Z,15.43
2023-02-16T23:50:36.623Z,15.00
2023-02-16T23:53:03.212Z,15.10
2023-02-16T23:55:29.773Z,15.90
2023-02-16T23:57:56.276Z,15.37
